Hoodsport, Washington
Current Conditions -  °F | °C
As of 10:53 PM on Saturday 25 Oct 2014 (Local Time) from KSHN Reporting Station
Light Rain Light Rain  
Wind Chill: 50°   Ceiling: 4800
Heat Index: 50°   Visibility: 9mi
Dew Point: 47°   Wind: 16mph
Humidity: 89%   Direction: 220°SW
Pressure: 29.69"   Gusts: NA
Location:  47.41°N, 123.14°W
Report Text: KSHN 260553Z AUTO 22014KT 9SM -RA FEW039 BKN048 OVC065 10/08 A2969 RMK AO2 PK WND 22031/0518 RAB13 SLP056 P0002 60017 T01000083 10139 20100 51078 TSNO
Loading
Personal Weather Stations






























Interactive Weather Map
Tropical Storm Tracking
New forecast layout! Learn more

10-Day Weather Forecast

Advertisements
Track Severe Weather on mobile